CheckWX is a tool to help pilots better visualize weather data.  It is not intended as a substitute for an official pre-flight weather briefing.

12:21:26 UTC

FACV METAR
Calvinia Airport
Calvinia, South Africa
Current

4 hours ago

FACV 180844Z 06011KT CAVOK 32/08 Q1018
Observed
Feb-18 @ 08:44 UTC
Wind
  • 060° at 11 KTS
Visibility
10,000+ meters
Flight Rules
VFR
Cloud Levels
  • Clear skies
Temperature
32°C / 90°F
Dewpoint
C / 46°F
Humidity
22%
Altimeter
30.06" Hg
Pressure
1017.92 hPa
Previous

5 hours ago

FACV 180653Z 12008KT CAVOK 28/07 Q1018
Observed
Feb-18 @ 06:53 UTC
Wind
  • 120° at 8 KTS
Visibility
10,000+ meters
Flight Rules
VFR
Cloud Levels
  • Clear skies
Temperature
28°C / 82°F
Dewpoint
C / 45°F
Humidity
26%
Altimeter
30.06" Hg
Pressure
1017.92 hPa
Previous

7 hours ago

FACV 180538Z 07010KT CAVOK 24/07 Q1018
Observed
Feb-18 @ 05:38 UTC
Wind
  • 070° at 10 KTS
Visibility
10,000+ meters
Flight Rules
VFR
Cloud Levels
  • Clear skies
Temperature
24°C / 75°F
Dewpoint
C / 45°F
Humidity
34%
Altimeter
30.06" Hg
Pressure
1017.92 hPa